Time;durP1;ratioP1;P1;durP2;ratioP2;P2;SDS_P1;SDS_P2;PMS_P1;PMS_P2;Temp;Humidity;BMP_temperature;BMP_pressure;BME280_temperature;BME280_humidity;BME280_pressure;Samples;Min_cycle;Max_cycle;Signal;HPM_P1;HPM_P2
2021/11/18 00:00:41;;;;;;;53.87;37.53;;;5.70;99.90;;;;;;5084495;28;20461;-70
2021/11/18 00:03:10;;;;;;;48.93;37.10;;;5.70;99.90;;;;;;5078606;28;20457;-71
2021/11/18 00:05:37;;;;;;;54.77;39.07;;;5.70;99.90;;;;;;5083905;28;20465;-71
2021/11/18 00:08:06;;;;;;;46.17;38.23;;;5.70;99.90;;;;;;5082664;28;20466;-68
2021/11/18 00:10:35;;;;;;;42.17;37.80;;;5.70;99.90;;;;;;5076355;28;20463;-71
2021/11/18 00:13:07;;;;;;;42.13;37.03;;;5.80;99.90;;;;;;5083211;28;20466;-69
2021/11/18 00:15:35;;;;;;;54.60;36.70;;;5.80;99.90;;;;;;5081165;28;20464;-69
2021/11/18 00:18:04;;;;;;;50.93;38.00;;;5.80;99.90;;;;;;5080756;28;20538;-69
2021/11/18 00:20:34;;;;;;;52.83;36.57;;;5.80;99.90;;;;;;5079643;28;20456;-69
2021/11/18 00:23:01;;;;;;;46.63;37.30;;;5.70;99.90;;;;;;5077252;28;20454;-71
2021/11/18 00:25:28;;;;;;;49.10;37.60;;;5.70;99.90;;;;;;5084180;28;20466;-72
2021/11/18 00:27:55;;;;;;;46.33;38.47;;;5.70;99.90;;;;;;5080853;28;20840;-71
2021/11/18 00:30:24;;;;;;;49.27;36.50;;;5.70;99.90;;;;;;5084927;28;20485;-70
2021/11/18 00:32:52;;;;;;;47.83;40.67;;;5.70;99.90;;;;;;5083332;28;20455;-70
2021/11/18 00:35:22;;;;;;;50.20;38.17;;;5.70;99.90;;;;;;5082043;28;20538;-72
2021/11/18 00:37:50;;;;;;;60.97;38.43;;;5.80;99.90;;;;;;5079869;28;20499;-70
2021/11/18 00:40:20;;;;;;;51.73;38.07;;;5.80;99.90;;;;;;5076947;28;20524;-69
2021/11/18 00:42:46;;;;;;;56.30;38.97;;;5.80;99.90;;;;;;5081934;28;20485;-71
2021/11/18 00:45:16;;;;;;;49.57;39.90;;;5.80;99.90;;;;;;5078636;28;20466;-69
2021/11/18 00:47:44;;;;;;;46.17;37.87;;;5.80;99.90;;;;;;5079523;28;20517;-69
2021/11/18 00:50:11;;;;;;;57.17;40.97;;;5.90;99.90;;;;;;5079225;28;20478;-71
2021/11/18 00:52:39;;;;;;;51.10;37.83;;;5.90;99.90;;;;;;5079697;28;21005;-71
2021/11/18 00:55:07;;;;;;;44.43;37.77;;;5.90;99.90;;;;;;5079535;28;20501;-68
2021/11/18 00:57:34;;;;;;;45.53;37.70;;;5.90;99.90;;;;;;5080694;28;20482;-71
2021/11/18 01:00:01;;;;;;;43.77;36.27;;;5.90;99.90;;;;;;5083572;28;20470;-68
2021/11/18 01:02:28;;;;;;;49.10;38.77;;;5.90;99.90;;;;;;5077738;28;20550;-71
2021/11/18 01:04:56;;;;;;;46.50;37.80;;;6.00;99.90;;;;;;5078468;28;20960;-68
2021/11/18 01:07:23;;;;;;;48.23;38.43;;;6.00;99.90;;;;;;5078853;28;20467;-71
2021/11/18 01:09:50;;;;;;;42.37;37.77;;;5.90;99.90;;;;;;5077138;28;20794;-69
2021/11/18 01:12:17;;;;;;;46.13;35.20;;;5.90;99.90;;;;;;5078717;28;20828;-69
2021/11/18 01:14:44;;;;;;;45.47;36.23;;;5.90;99.90;;;;;;5074107;28;20455;-70
2021/11/18 01:17:11;;;;;;;42.77;36.90;;;5.90;99.90;;;;;;5087516;28;20535;-70
2021/11/18 01:19:38;;;;;;;52.80;35.73;;;5.90;99.90;;;;;;5083237;28;20468;-69
2021/11/18 01:22:09;;;;;;;49.17;34.93;;;5.90;99.90;;;;;;5080777;28;20464;-69
2021/11/18 01:24:38;;;;;;;41.27;32.47;;;5.90;99.90;;;;;;5082793;28;20462;-72
2021/11/18 01:27:05;;;;;;;51.37;36.03;;;5.90;99.90;;;;;;5071763;28;20834;-68
2021/11/18 01:29:32;;;;;;;44.33;36.20;;;5.80;99.90;;;;;;5079254;28;20557;-72
2021/11/18 01:32:00;;;;;;;57.87;35.50;;;5.80;99.90;;;;;;5078559;28;20528;-69
2021/11/18 01:34:28;;;;;;;46.00;35.60;;;5.80;99.90;;;;;;5077901;28;20459;-68
2021/11/18 01:36:55;;;;;;;63.50;38.67;;;5.80;99.90;;;;;;5079939;28;20504;-68
2021/11/18 01:39:23;;;;;;;59.10;38.57;;;5.80;99.90;;;;;;5081886;28;20825;-69
2021/11/18 01:41:51;;;;;;;56.50;36.87;;;5.70;99.90;;;;;;5081515;28;20491;-71
2021/11/18 01:44:21;;;;;;;52.63;40.23;;;5.70;99.90;;;;;;5082283;28;20505;-71
2021/11/18 01:46:48;;;;;;;47.10;35.27;;;5.70;99.90;;;;;;5077911;28;20513;-69
2021/11/18 01:49:15;;;;;;;42.23;37.73;;;5.60;99.90;;;;;;5076375;28;20489;-70
2021/11/18 01:51:44;;;;;;;40.60;35.90;;;5.70;99.90;;;;;;5076494;28;20511;-70
2021/11/18 01:54:13;;;;;;;54.93;39.50;;;5.70;99.90;;;;;;5082140;28;20984;-70
2021/11/18 01:56:42;;;;;;;41.90;36.83;;;5.70;99.90;;;;;;5081186;28;20482;-71
2021/11/18 01:59:15;;;;;;;51.43;38.07;;;5.70;99.90;;;;;;5077904;28;20466;-68
2021/11/18 02:01:44;;;;;;;53.87;37.77;;;5.70;99.90;;;;;;5080768;28;20459;-69
2021/11/18 02:04:12;;;;;;;72.93;38.60;;;5.70;99.90;;;;;;5075731;28;20461;-68
2021/11/18 02:06:44;;;;;;;43.33;37.23;;;5.70;99.90;;;;;;5081234;28;20960;-69
2021/11/18 02:09:13;;;;;;;44.60;36.10;;;5.70;99.90;;;;;;5082204;28;20464;-70
2021/11/18 02:11:44;;;;;;;59.10;37.23;;;5.70;99.90;;;;;;5081797;28;20470;-70
2021/11/18 02:14:14;;;;;;;49.40;38.70;;;5.70;99.90;;;;;;5073408;28;20462;-70
2021/11/18 02:16:41;;;;;;;70.03;38.10;;;5.80;99.90;;;;;;5076508;28;20502;-69
2021/11/18 02:19:10;;;;;;;43.90;34.80;;;5.70;99.90;;;;;;5079137;28;20469;-71
2021/11/18 02:21:40;;;;;;;46.43;35.90;;;5.80;99.90;;;;;;5081842;28;20458;-69
2021/11/18 02:24:22;;;;;;;49.23;38.20;;;5.80;99.90;;;;;;5073426;28;20542;-67
2021/11/18 02:26:51;;;;;;;41.20;33.30;;;5.80;99.90;;;;;;5077395;28;20474;-68
2021/11/18 02:29:20;;;;;;;54.90;35.70;;;5.90;99.90;;;;;;5084570;28;20502;-69
2021/11/18 02:31:50;;;;;;;61.20;37.00;;;5.90;99.90;;;;;;5077322;28;20548;-67
2021/11/18 02:34:20;;;;;;;51.77;37.20;;;6.00;99.90;;;;;;5076480;28;20469;-69
2021/11/18 02:36:48;;;;;;;52.80;35.20;;;6.00;99.90;;;;;;5078250;28;20492;-70
2021/11/18 02:39:16;;;;;;;58.10;37.03;;;5.90;99.90;;;;;;5083058;28;20513;-68
2021/11/18 02:41:44;;;;;;;56.13;37.67;;;5.90;99.90;;;;;;5083742;28;20519;-69
2021/11/18 02:44:13;;;;;;;41.50;35.03;;;5.80;99.90;;;;;;5084337;28;21018;-70
2021/11/18 02:46:40;;;;;;;57.83;37.40;;;5.90;99.90;;;;;;5088930;28;20891;-70
2021/11/18 02:49:07;;;;;;;47.93;35.80;;;5.90;99.90;;;;;;5082008;28;20458;-71
2021/11/18 02:51:35;;;;;;;49.70;36.40;;;5.90;99.90;;;;;;5081297;28;20469;-68
2021/11/18 02:54:06;;;;;;;53.77;36.40;;;5.90;99.90;;;;;;5082449;28;20501;-72
2021/11/18 02:56:33;;;;;;;58.30;37.63;;;5.90;99.90;;;;;;5074695;28;20458;-71
2021/11/18 02:59:01;;;;;;;52.57;34.67;;;5.90;99.90;;;;;;5079539;28;20499;-69
2021/11/18 03:01:30;;;;;;;47.90;36.80;;;5.80;99.90;;;;;;5088558;28;20450;-70
2021/11/18 03:03:58;;;;;;;61.97;37.60;;;5.80;99.90;;;;;;5083480;28;20466;-70
2021/11/18 03:06:25;;;;;;;51.17;38.07;;;5.90;99.90;;;;;;5081971;28;20489;-68
2021/11/18 03:08:52;;;;;;;61.10;36.47;;;5.90;99.90;;;;;;5081166;28;20465;-70
2021/11/18 03:11:23;;;;;;;52.00;37.80;;;5.80;99.90;;;;;;5083761;28;20469;-67
2021/11/18 03:13:51;;;;;;;55.80;37.50;;;5.80;99.90;;;;;;5077504;28;20980;-67
2021/11/18 03:16:20;;;;;;;58.43;40.10;;;5.80;99.90;;;;;;5088159;28;20459;-69
2021/11/18 03:18:48;;;;;;;47.53;38.10;;;5.80;99.90;;;;;;5081159;28;20540;-71
2021/11/18 03:21:17;;;;;;;54.67;37.67;;;5.70;99.90;;;;;;5078173;28;20466;-69
2021/11/18 03:23:44;;;;;;;60.13;38.17;;;5.70;99.90;;;;;;5080700;28;20491;-70
2021/11/18 03:26:15;;;;;;;51.93;39.10;;;5.70;99.90;;;;;;5080900;28;20471;-71
2021/11/18 03:28:43;;;;;;;45.43;38.80;;;5.70;99.90;;;;;;5088228;28;20478;-68
2021/11/18 03:31:11;;;;;;;55.53;40.07;;;5.70;99.90;;;;;;5083118;28;20484;-68
2021/11/18 03:33:41;;;;;;;55.67;42.40;;;5.70;99.90;;;;;;5078604;28;20458;-70
2021/11/18 03:36:10;;;;;;;55.50;38.97;;;5.70;99.90;;;;;;5081752;28;21207;-70
2021/11/18 03:38:38;;;;;;;57.50;39.53;;;5.60;99.90;;;;;;5078309;28;20490;-71
2021/11/18 03:41:07;;;;;;;61.27;39.20;;;5.60;99.90;;;;;;5074355;28;20552;-71
2021/11/18 03:43:36;;;;;;;52.67;38.47;;;5.60;99.90;;;;;;5082942;28;20536;-68
2021/11/18 03:46:05;;;;;;;52.17;40.97;;;5.50;99.90;;;;;;5078948;28;20490;-70
2021/11/18 03:48:34;;;;;;;59.33;42.47;;;5.50;99.90;;;;;;5083433;28;20462;-71
2021/11/18 03:51:02;;;;;;;71.37;42.10;;;5.50;99.90;;;;;;5078316;28;21075;-72
2021/11/18 03:53:29;;;;;;;61.10;41.23;;;5.50;99.90;;;;;;5076392;28;20601;-69
2021/11/18 03:55:56;;;;;;;58.40;38.27;;;5.50;99.90;;;;;;5084635;28;20963;-67
2021/11/18 03:58:23;;;;;;;60.03;41.90;;;5.60;99.90;;;;;;5085842;28;20486;-69
2021/11/18 04:00:50;;;;;;;61.97;39.20;;;5.60;99.90;;;;;;5075778;28;20474;-71
2021/11/18 04:03:18;;;;;;;64.00;42.03;;;5.50;99.90;;;;;;5077998;28;20468;-71
2021/11/18 04:05:45;;;;;;;53.30;40.27;;;5.50;99.90;;;;;;5082705;28;20458;-71
2021/11/18 04:08:13;;;;;;;51.90;40.03;;;5.50;99.90;;;;;;5081129;28;20470;-68
2021/11/18 04:10:40;;;;;;;57.53;35.87;;;5.50;99.90;;;;;;5084246;28;20462;-69
2021/11/18 04:13:09;;;;;;;54.17;40.13;;;5.40;99.90;;;;;;5082392;28;20497;-67
2021/11/18 04:15:37;;;;;;;48.17;38.60;;;5.40;99.90;;;;;;5084176;28;20830;-70
2021/11/18 04:18:05;;;;;;;60.20;41.17;;;5.40;99.90;;;;;;5081531;28;20490;-67
2021/11/18 04:20:34;;;;;;;53.53;39.97;;;5.40;99.90;;;;;;5077637;28;20470;-69
2021/11/18 04:23:02;;;;;;;45.90;38.90;;;5.40;99.90;;;;;;5081720;28;20470;-69
2021/11/18 04:25:33;;;;;;;59.93;41.00;;;5.40;99.90;;;;;;5074647;28;20477;-72
2021/11/18 04:28:01;;;;;;;61.10;44.03;;;5.30;99.90;;;;;;5082735;28;20462;-70
2021/11/18 04:30:32;;;;;;;52.00;40.23;;;5.30;99.90;;;;;;5074251;28;20476;-68
2021/11/18 04:33:00;;;;;;;59.97;40.63;;;5.30;99.90;;;;;;5079247;28;20461;-69
2021/11/18 04:35:27;;;;;;;45.57;39.80;;;5.30;99.90;;;;;;5076343;28;20540;-71
2021/11/18 04:37:56;;;;;;;52.77;39.80;;;5.20;99.90;;;;;;5081137;28;20882;-72
2021/11/18 04:40:23;;;;;;;50.93;41.50;;;5.20;99.90;;;;;;5079707;28;20543;-71
2021/11/18 04:42:50;;;;;;;50.93;41.67;;;5.20;99.90;;;;;;5085307;28;20481;-69
2021/11/18 04:45:19;;;;;;;53.73;42.10;;;5.10;99.90;;;;;;5078674;28;20465;-70
2021/11/18 04:47:47;;;;;;;63.40;40.80;;;5.10;99.90;;;;;;5080332;28;20465;-71
2021/11/18 04:50:15;;;;;;;62.80;41.50;;;5.10;99.90;;;;;;5080405;28;20566;-71
2021/11/18 04:52:42;;;;;;;59.93;39.40;;;5.00;99.90;;;;;;5085535;28;20516;-69
2021/11/18 04:55:12;;;;;;;54.97;40.67;;;5.00;99.90;;;;;;5083180;28;20459;-68
2021/11/18 04:57:40;;;;;;;48.10;38.27;;;5.00;99.90;;;;;;5079584;28;20526;-68
2021/11/18 05:00:10;;;;;;;58.57;41.87;;;4.90;99.90;;;;;;5079193;28;20458;-68
2021/11/18 05:02:37;;;;;;;62.77;42.17;;;5.00;99.90;;;;;;5077324;28;20462;-70
2021/11/18 05:05:05;;;;;;;60.80;42.17;;;5.00;99.90;;;;;;5071498;28;20458;-72
2021/11/18 05:07:32;;;;;;;61.90;40.60;;;5.10;99.90;;;;;;5082332;28;20541;-68
2021/11/18 05:10:00;;;;;;;63.03;43.43;;;5.10;99.90;;;;;;5077019;28;20467;-71
2021/11/18 05:12:28;;;;;;;56.43;39.60;;;5.20;99.90;;;;;;5082962;28;20493;-68
2021/11/18 05:14:55;;;;;;;60.43;39.03;;;5.30;99.90;;;;;;5075170;28;20457;-71
2021/11/18 05:17:23;;;;;;;48.17;39.70;;;5.30;99.90;;;;;;5075640;28;20473;-69
2021/11/18 05:19:50;;;;;;;54.80;40.40;;;5.40;99.90;;;;;;5073629;28;20455;-72
2021/11/18 05:22:17;;;;;;;55.13;42.53;;;5.40;99.90;;;;;;5080831;28;20952;-69
2021/11/18 05:24:44;;;;;;;64.30;41.33;;;5.40;99.90;;;;;;5073141;28;20458;-69
2021/11/18 05:27:13;;;;;;;51.83;40.53;;;5.50;99.90;;;;;;5075763;28;20462;-71
2021/11/18 05:29:43;;;;;;;63.03;42.57;;;5.50;99.90;;;;;;5087253;28;20539;-70
2021/11/18 05:32:10;;;;;;;59.63;42.37;;;5.60;99.90;;;;;;5082280;28;20458;-69
2021/11/18 05:34:39;;;;;;;49.30;38.17;;;5.60;99.90;;;;;;5076981;28;20944;-70
2021/11/18 05:37:07;;;;;;;53.47;40.93;;;5.60;99.90;;;;;;5079713;28;20491;-69
2021/11/18 05:39:36;;;;;;;56.40;41.10;;;5.70;99.90;;;;;;5077881;28;21079;-69
2021/11/18 05:42:03;;;;;;;48.77;40.07;;;5.70;99.90;;;;;;5078879;28;20466;-72
2021/11/18 05:44:31;;;;;;;57.23;41.60;;;5.70;99.90;;;;;;5084140;28;20469;-70
2021/11/18 05:47:01;;;;;;;50.97;40.10;;;5.70;99.90;;;;;;5085434;28;20975;-68
2021/11/18 05:49:28;;;;;;;66.10;40.33;;;5.70;99.90;;;;;;5082666;28;20490;-69
2021/11/18 05:51:56;;;;;;;67.10;41.20;;;5.70;99.90;;;;;;5077802;28;20462;-71
2021/11/18 05:54:23;;;;;;;60.87;39.27;;;5.70;99.90;;;;;;5082327;28;21134;-69
2021/11/18 05:56:50;;;;;;;60.00;40.10;;;5.80;99.90;;;;;;5080832;28;20454;-72
2021/11/18 05:59:17;;;;;;;53.73;38.30;;;5.90;99.90;;;;;;5079586;28;20478;-71
2021/11/18 06:01:44;;;;;;;50.80;38.63;;;5.90;99.90;;;;;;5078974;28;20463;-72
2021/11/18 06:04:12;;;;;;;58.03;41.07;;;5.90;99.90;;;;;;5082186;28;20457;-69
2021/11/18 06:06:40;;;;;;;51.07;38.33;;;6.00;99.90;;;;;;5077316;28;20462;-70
2021/11/18 06:09:07;;;;;;;62.77;40.10;;;6.00;99.90;;;;;;5080375;28;20463;-68
2021/11/18 06:11:36;;;;;;;52.77;38.60;;;6.10;99.90;;;;;;5085802;28;20478;-71
2021/11/18 06:14:05;;;;;;;57.57;38.20;;;6.20;99.90;;;;;;5084888;28;20497;-72
2021/11/18 06:16:32;;;;;;;48.90;37.77;;;6.20;99.90;;;;;;5082565;28;20455;-71
2021/11/18 06:19:01;;;;;;;57.20;36.50;;;6.20;99.90;;;;;;5084066;28;20486;-72
2021/11/18 06:21:30;;;;;;;50.13;35.67;;;6.20;99.90;;;;;;5087579;28;20454;-69
2021/11/18 06:23:58;;;;;;;44.20;34.93;;;6.20;99.90;;;;;;5082417;28;20469;-70
2021/11/18 06:26:27;;;;;;;54.30;37.10;;;6.20;99.90;;;;;;5087620;28;20469;-70
2021/11/18 06:28:55;;;;;;;59.17;36.97;;;6.30;99.90;;;;;;5082903;28;20477;-73
2021/11/18 06:31:23;;;;;;;61.43;36.40;;;6.30;99.90;;;;;;5078045;28;20464;-71
2021/11/18 06:33:52;;;;;;;51.93;35.97;;;6.30;99.90;;;;;;5079781;28;20468;-70
2021/11/18 06:36:20;;;;;;;54.57;36.77;;;6.30;99.90;;;;;;5071280;28;20466;-72
2021/11/18 06:38:50;;;;;;;54.40;34.27;;;6.30;99.90;;;;;;5082699;28;20488;-69
2021/11/18 06:41:19;;;;;;;59.27;37.37;;;6.40;99.90;;;;;;5076446;28;20457;-72
2021/11/18 06:43:47;;;;;;;55.40;36.23;;;6.30;99.90;;;;;;5078487;28;20490;-71
2021/11/18 06:46:14;;;;;;;48.57;33.67;;;6.30;99.90;;;;;;5070378;28;20459;-70
2021/11/18 06:48:42;;;;;;;62.00;37.07;;;6.40;99.90;;;;;;5081920;28;20460;-69
2021/11/18 06:51:12;;;;;;;57.73;36.00;;;6.40;99.90;;;;;;5082102;28;20492;-69
2021/11/18 06:53:41;;;;;;;52.80;33.20;;;6.50;99.90;;;;;;5077420;28;20490;-71
2021/11/18 06:56:11;;;;;;;54.50;35.00;;;6.40;99.90;;;;;;5080903;28;20458;-71
2021/11/18 06:58:38;;;;;;;49.23;35.97;;;6.40;99.90;;;;;;5081263;28;20494;-69
2021/11/18 07:01:06;;;;;;;59.27;33.83;;;6.50;99.90;;;;;;5080272;28;21110;-68
2021/11/18 07:03:33;;;;;;;52.20;34.10;;;6.50;99.90;;;;;;5081543;28;20462;-68
2021/11/18 07:06:00;;;;;;;62.80;35.67;;;6.50;99.90;;;;;;5083384;28;20575;-69
2021/11/18 07:08:28;;;;;;;56.80;33.90;;;6.60;99.90;;;;;;5078449;28;20531;-72
2021/11/18 07:10:55;;;;;;;59.97;33.73;;;6.60;99.90;;;;;;5072163;28;20493;-71
2021/11/18 07:13:25;;;;;;;50.40;34.20;;;6.60;99.90;;;;;;5079462;28;20912;-73
2021/11/18 07:15:53;;;;;;;63.30;34.60;;;6.60;99.90;;;;;;5078507;28;20489;-70
2021/11/18 07:18:20;;;;;;;53.90;35.03;;;6.60;99.90;;;;;;5078890;28;20483;-71
2021/11/18 07:20:48;;;;;;;53.77;32.33;;;6.70;99.90;;;;;;5078103;28;20465;-72
2021/11/18 07:23:15;;;;;;;56.67;34.97;;;6.70;99.90;;;;;;5075359;28;20545;-71
2021/11/18 07:25:43;;;;;;;61.83;34.30;;;6.70;99.90;;;;;;5072709;28;20454;-70
2021/11/18 07:28:10;;;;;;;53.87;34.20;;;6.80;99.90;;;;;;5076567;28;20472;-73
2021/11/18 07:30:39;;;;;;;46.57;32.23;;;6.80;99.90;;;;;;5072250;28;20881;-73
2021/11/18 07:33:06;;;;;;;51.97;32.43;;;6.90;99.90;;;;;;5071317;28;20462;-71
2021/11/18 07:35:34;;;;;;;57.30;31.70;;;6.80;99.90;;;;;;5077104;28;20823;-69
2021/11/18 07:38:03;;;;;;;59.93;32.20;;;6.90;99.90;;;;;;5075882;28;20980;-68
2021/11/18 07:40:30;;;;;;;57.57;31.40;;;6.90;99.90;;;;;;5075097;28;20577;-72
2021/11/18 07:42:57;;;;;;;37.77;30.20;;;7.00;99.90;;;;;;5071347;28;20494;-72
2021/11/18 07:45:26;;;;;;;56.83;30.67;;;7.00;99.90;;;;;;5077318;28;20490;-71
2021/11/18 07:47:54;;;;;;;48.00;31.40;;;7.10;99.90;;;;;;5072368;28;20473;-72
2021/11/18 07:50:22;;;;;;;43.90;31.60;;;7.20;99.90;;;;;;5077146;28;20831;-70
2021/11/18 07:52:50;;;;;;;53.73;32.07;;;7.20;99.90;;;;;;5076897;28;20462;-72
2021/11/18 07:55:19;;;;;;;52.37;31.03;;;7.20;99.90;;;;;;5078067;28;20458;-70
2021/11/18 07:57:47;;;;;;;41.90;30.83;;;7.30;99.90;;;;;;5071357;28;20476;-73
2021/11/18 08:00:17;;;;;;;49.23;32.17;;;7.30;99.90;;;;;;5074950;28;20490;-69
2021/11/18 08:02:44;;;;;;;43.33;30.00;;;7.40;99.90;;;;;;5076585;28;20465;-70
2021/11/18 08:05:14;;;;;;;55.73;31.10;;;7.30;99.90;;;;;;5076569;28;20570;-69
2021/11/18 08:07:42;;;;;;;50.07;29.87;;;7.30;99.90;;;;;;5074679;28;20464;-69
2021/11/18 08:10:10;;;;;;;44.47;28.10;;;7.30;99.90;;;;;;5073807;28;20456;-69
2021/11/18 08:12:37;;;;;;;46.63;27.63;;;7.30;99.90;;;;;;5073883;28;20482;-69
2021/11/18 08:15:05;;;;;;;42.63;27.93;;;7.40;99.90;;;;;;5073852;28;20854;-69
2021/11/18 08:17:33;;;;;;;47.43;29.47;;;7.50;99.90;;;;;;5078008;28;20468;-68
2021/11/18 08:20:00;;;;;;;51.87;28.00;;;7.60;99.90;;;;;;5070655;28;20487;-69
2021/11/18 08:22:28;;;;;;;55.67;29.97;;;7.60;99.90;;;;;;5077537;28;20588;-69
2021/11/18 08:24:56;;;;;;;56.67;28.50;;;7.60;99.90;;;;;;5079031;28;20552;-69
2021/11/18 08:27:23;;;;;;;60.97;29.47;;;7.60;99.90;;;;;;5077197;28;20907;-69
2021/11/18 08:29:50;;;;;;;45.80;27.13;;;7.70;99.90;;;;;;5077518;28;20496;-69
2021/11/18 08:32:17;;;;;;;52.37;29.47;;;7.70;99.90;;;;;;5073145;28;20469;-69
2021/11/18 08:34:45;;;;;;;54.70;27.20;;;7.70;99.90;;;;;;5069511;28;20470;-69
2021/11/18 08:37:13;;;;;;;44.17;27.50;;;7.80;99.90;;;;;;5073429;28;20551;-73
2021/11/18 08:39:41;;;;;;;55.47;28.00;;;7.80;99.90;;;;;;5075801;28;20518;-71
2021/11/18 08:42:11;;;;;;;38.63;26.73;;;7.80;99.90;;;;;;5071642;28;20912;-69
2021/11/18 08:44:38;;;;;;;39.97;26.70;;;7.90;99.90;;;;;;5077340;28;20466;-69
2021/11/18 08:47:07;;;;;;;35.73;24.20;;;7.90;99.90;;;;;;5081410;28;20473;-69
2021/11/18 08:49:37;;;;;;;46.53;27.57;;;7.90;99.90;;;;;;5078066;28;20468;-69
2021/11/18 08:52:08;;;;;;;47.87;26.57;;;7.90;99.90;;;;;;5073833;28;20840;-69
2021/11/18 08:54:38;;;;;;;42.50;27.20;;;8.00;99.90;;;;;;5077528;28;20453;-69
2021/11/18 08:57:08;;;;;;;50.33;26.83;;;8.00;99.90;;;;;;5079183;28;20474;-69
2021/11/18 08:59:36;;;;;;;42.23;28.70;;;8.00;99.90;;;;;;5073189;28;20495;-69
2021/11/18 09:02:06;;;;;;;47.37;28.13;;;8.10;99.90;;;;;;5069557;28;20466;-72
2021/11/18 09:04:33;;;;;;;44.23;27.90;;;8.10;99.90;;;;;;5075005;28;20471;-71
2021/11/18 09:07:00;;;;;;;36.10;27.40;;;8.10;99.90;;;;;;5072482;28;20893;-73
2021/11/18 09:09:28;;;;;;;39.50;27.33;;;8.10;99.90;;;;;;5071231;28;20459;-68
2021/11/18 09:11:57;;;;;;;50.13;29.03;;;8.20;99.90;;;;;;5071879;28;20454;-70
2021/11/18 09:14:27;;;;;;;50.30;28.17;;;8.20;99.90;;;;;;5076887;28;20492;-69
2021/11/18 09:19:42;;;;;;;46.33;27.17;;;8.20;99.90;;;;;;5072519;28;20835;-69
2021/11/18 09:22:12;;;;;;;52.07;27.47;;;8.20;99.90;;;;;;5073440;28;20550;-69
2021/11/18 09:24:43;;;;;;;50.80;27.40;;;8.10;99.90;;;;;;5072373;28;20465;-69
2021/11/18 09:27:22;;;;;;;44.37;28.00;;;8.10;99.90;;;;;;5076342;28;20469;-68
2021/11/18 09:29:52;;;;;;;44.10;27.40;;;8.10;99.90;;;;;;5071794;28;20900;-68
2021/11/18 09:32:20;;;;;;;49.90;27.43;;;8.20;99.90;;;;;;5079097;28;22527;-68
2021/11/18 09:34:46;;;;;;;46.90;27.90;;;8.20;99.90;;;;;;5080034;28;20572;-72
2021/11/18 09:37:14;;;;;;;40.93;26.70;;;8.30;99.90;;;;;;5074404;28;20468;-73
2021/11/18 09:39:42;;;;;;;47.13;27.13;;;8.30;99.90;;;;;;5073544;28;20516;-68
2021/11/18 09:42:12;;;;;;;39.17;26.13;;;8.30;99.90;;;;;;5075566;28;20498;-74
2021/11/18 09:45:09;;;;;;;53.30;28.77;;;8.30;99.90;;;;;;5076842;28;20466;-71
2021/11/18 09:48:22;;;;;;;53.43;27.33;;;8.50;99.90;;;;;;5072677;28;20820;-71
2021/11/18 09:51:05;;;;;;;42.50;26.97;;;8.50;99.90;;;;;;5049283;28;21161;-71
2021/11/18 09:53:43;;;;;;;41.13;27.20;;;8.50;99.90;;;;;;5061545;28;20459;-70
2021/11/18 09:56:17;;;;;;;37.70;27.50;;;8.60;99.90;;;;;;5074950;28;20497;-69
2021/11/18 09:59:07;;;;;;;50.20;27.87;;;8.70;99.90;;;;;;5071019;28;20465;-69
2021/11/18 10:01:57;;;;;;;36.97;25.23;;;8.80;99.90;;;;;;5072518;28;20828;-71
2021/11/18 10:04:34;;;;;;;47.97;28.90;;;8.80;99.90;;;;;;5071111;28;20473;-71
2021/11/18 10:07:03;;;;;;;43.73;26.87;;;8.80;99.90;;;;;;5070553;28;20837;-69
2021/11/18 10:09:37;;;;;;;41.07;24.63;;;8.80;99.90;;;;;;5070517;28;20577;-68
2021/11/18 10:12:07;;;;;;;34.87;25.60;;;8.80;99.90;;;;;;5069604;28;20761;-69
2021/11/18 10:14:52;;;;;;;39.93;25.87;;;8.90;99.90;;;;;;5068093;28;20473;-73
2021/11/18 10:17:25;;;;;;;38.93;25.00;;;9.10;99.90;;;;;;5075638;28;20937;-72
2021/11/18 10:19:55;;;;;;;38.67;24.70;;;9.10;99.90;;;;;;5071647;28;20847;-70
2021/11/18 10:22:25;;;;;;;49.63;25.70;;;9.10;99.90;;;;;;5078327;28;20553;-71
2021/11/18 10:24:54;;;;;;;30.50;23.00;;;9.20;99.90;;;;;;5063712;28;20558;-70
2021/11/18 10:27:25;;;;;;;30.73;24.00;;;9.30;99.90;;;;;;5071835;28;20989;-69
2021/11/18 10:30:07;;;;;;;34.27;23.33;;;9.40;99.90;;;;;;5073843;28;20492;-69
2021/11/18 10:32:47;;;;;;;40.43;22.30;;;9.50;99.90;;;;;;5065671;28;20504;-69
2021/11/18 10:35:18;;;;;;;30.80;22.70;;;9.70;99.90;;;;;;5074366;28;20481;-69
2021/11/18 10:37:47;;;;;;;38.87;21.80;;;9.60;99.90;;;;;;5075253;28;20568;-68
2021/11/18 10:40:19;;;;;;;37.00;22.30;;;9.70;99.90;;;;;;5066650;28;22258;-69
2021/11/18 10:42:49;;;;;;;25.80;20.67;;;9.70;99.90;;;;;;5066425;28;20518;-68
2021/11/18 10:45:37;;;;;;;36.40;22.73;;;10.20;99.90;;;;;;5072714;28;20917;-68
2021/11/18 10:48:16;;;;;;;25.43;19.90;;;10.60;99.90;;;;;;5068673;28;20713;-67
2021/11/18 10:50:45;;;;;;;26.63;22.07;;;10.80;99.90;;;;;;5072437;28;20454;-73
2021/11/18 10:53:18;;;;;;;23.20;20.67;;;10.90;99.90;;;;;;5076036;28;20979;-68
2021/11/18 10:55:47;;;;;;;29.47;19.87;;;11.20;99.90;;;;;;5067088;28;20963;-70
2021/11/18 10:58:29;;;;;;;27.00;20.37;;;11.50;99.90;;;;;;5068718;28;20462;-71
2021/11/18 11:01:00;;;;;;;21.63;19.50;;;11.70;99.90;;;;;;5070987;28;21028;-67
2021/11/18 11:03:31;;;;;;;24.07;20.20;;;11.70;99.90;;;;;;5072801;28;20468;-69
2021/11/18 11:06:12;;;;;;;27.43;19.43;;;12.00;99.90;;;;;;5079647;28;20960;-68
2021/11/18 11:08:41;;;;;;;22.47;18.90;;;12.30;99.90;;;;;;5072957;28;20466;-68
2021/11/18 11:11:17;;;;;;;27.47;19.50;;;11.70;99.90;;;;;;5072647;28;20458;-69
2021/11/18 11:14:12;;;;;;;29.50;19.23;;;11.70;99.90;;;;;;5078815;28;20924;-70
2021/11/18 11:17:10;;;;;;;27.80;18.60;;;11.90;99.90;;;;;;5081885;28;20455;-68
2021/11/18 11:19:43;;;;;;;22.77;20.57;;;11.90;99.90;;;;;;5080079;28;20490;-71
2021/11/18 11:22:16;;;;;;;31.27;19.30;;;11.80;99.90;;;;;;5072021;28;20548;-69
2021/11/18 11:25:12;;;;;;;29.13;20.27;;;11.80;99.90;;;;;;5075534;28;20463;-68
2021/11/18 11:28:21;;;;;;;21.93;17.80;;;12.10;99.90;;;;;;5079256;28;20496;-68
2021/11/18 11:31:07;;;;;;;24.77;17.27;;;12.40;99.90;;;;;;5042487;28;20480;-68
2021/11/18 11:33:41;;;;;;;24.93;18.80;;;12.50;99.90;;;;;;5073979;28;20461;-70
2021/11/18 11:36:13;;;;;;;29.33;19.17;;;12.50;99.90;;;;;;5073148;28;20976;-68
2021/11/18 11:38:53;;;;;;;34.23;20.03;;;12.10;99.90;;;;;;5072816;28;20888;-70
2021/11/18 11:42:08;;;;;;;20.93;18.50;;;12.10;99.90;;;;;;5074603;28;20477;-71
2021/11/18 11:44:47;;;;;;;24.10;17.40;;;12.00;99.90;;;;;;5077236;28;20848;-70
2021/11/18 11:47:43;;;;;;;30.80;19.17;;;12.10;99.90;;;;;;5074236;28;20570;-68
2021/11/18 11:50:19;;;;;;;24.40;19.37;;;12.20;99.90;;;;;;5075931;28;20466;-68
2021/11/18 11:52:58;;;;;;;20.27;17.90;;;12.40;99.90;;;;;;5072757;28;20990;-71
2021/11/18 11:55:38;;;;;;;28.10;19.57;;;12.30;99.90;;;;;;5076540;28;20517;-71
2021/11/18 11:58:11;;;;;;;26.87;19.60;;;12.20;99.90;;;;;;5075734;28;20964;-70
2021/11/18 12:00:48;;;;;;;22.50;18.80;;;12.40;99.90;;;;;;5072279;28;20490;-69
2021/11/18 12:03:29;;;;;;;28.90;19.00;;;12.50;99.90;;;;;;5076533;28;20881;-72
2021/11/18 12:06:01;;;;;;;21.23;19.00;;;12.50;99.90;;;;;;5078725;28;20462;-67
2021/11/18 12:08:38;;;;;;;22.83;18.80;;;12.40;99.90;;;;;;5080472;28;20839;-73
2021/11/18 12:11:11;;;;;;;34.47;20.50;;;12.60;99.90;;;;;;5067228;28;20509;-70
2021/11/18 12:13:45;;;;;;;24.57;19.40;;;12.60;99.90;;;;;;5078805;28;20463;-72
2021/11/18 12:16:19;;;;;;;20.37;18.23;;;12.60;99.90;;;;;;5078834;28;20462;-73
2021/11/18 12:18:49;;;;;;;31.93;21.63;;;12.70;99.90;;;;;;5078315;28;20466;-69
2021/11/18 12:21:20;;;;;;;28.87;20.40;;;12.70;99.90;;;;;;5072738;28;20491;-69
2021/11/18 12:24:08;;;;;;;19.57;17.67;;;12.90;99.90;;;;;;5072972;28;20854;-69
2021/11/18 12:26:53;;;;;;;21.70;19.60;;;12.90;99.90;;;;;;5075704;28;20470;-71
2021/11/18 12:29:30;;;;;;;21.67;19.67;;;12.80;99.90;;;;;;5081517;28;20887;-69
2021/11/18 12:32:32;;;;;;;23.33;20.37;;;12.70;99.90;;;;;;5074993;28;20466;-73
2021/11/18 12:35:13;;;;;;;27.73;20.20;;;12.80;99.90;;;;;;5073305;28;20489;-72
2021/11/18 12:38:04;;;;;;;22.63;20.00;;;12.90;99.90;;;;;;5072576;28;20971;-69
2021/11/18 12:40:47;;;;;;;33.83;19.33;;;12.90;99.90;;;;;;5066781;28;20505;-70
2021/11/18 12:43:41;;;;;;;21.37;19.13;;;13.00;99.90;;;;;;5074152;28;20519;-70
2021/11/18 12:46:23;;;;;;;21.43;19.00;;;12.90;99.90;;;;;;5072346;28;20459;-72
2021/11/18 12:49:11;;;;;;;22.60;20.33;;;12.90;99.90;;;;;;5078897;28;20465;-70
2021/11/18 12:52:10;;;;;;;30.70;20.50;;;12.80;99.90;;;;;;5073405;28;20949;-69
2021/11/18 12:54:40;;;;;;;23.13;19.70;;;12.80;99.90;;;;;;5059628;28;20458;-69
2021/11/18 12:57:27;;;;;;;22.70;19.60;;;12.80;99.90;;;;;;5072989;28;20497;-70